createdAt,value
2018-06-29T00:01:46.353Z,54.90
2018-06-29T00:04:26.735Z,55.30
2018-06-29T00:07:07.376Z,54.90
2018-06-29T00:09:47.562Z,54.80
2018-06-29T00:12:27.950Z,54.90
2018-06-29T00:15:08.203Z,55.40
2018-06-29T00:17:48.572Z,56.20
2018-06-29T00:20:28.832Z,56.00
2018-06-29T00:23:09.009Z,56.30
2018-06-29T00:25:49.184Z,56.30
2018-06-29T00:28:29.767Z,56.50
2018-06-29T00:31:09.855Z,57.10
2018-06-29T00:33:50.060Z,57.70
2018-06-29T00:36:30.238Z,59.00
2018-06-29T00:39:10.435Z,59.50
2018-06-29T00:41:50.821Z,60.70
2018-06-29T00:44:31.221Z,60.90
2018-06-29T00:47:11.308Z,61.10
2018-06-29T00:49:51.557Z,61.90
2018-06-29T00:52:31.719Z,61.70
2018-06-29T00:55:11.967Z,61.60
2018-06-29T00:57:52.371Z,62.50
2018-06-29T01:00:32.492Z,63.50
2018-06-29T01:03:12.769Z,64.10
2018-06-29T01:05:52.895Z,64.80
2018-06-29T01:08:33.040Z,65.10
2018-06-29T01:11:13.279Z,65.70
2018-06-29T01:13:53.717Z,66.60
2018-06-29T01:16:33.843Z,66.40
2018-06-29T01:19:13.989Z,65.90
2018-06-29T01:21:54.446Z,66.50
2018-06-29T01:24:34.776Z,66.60
2018-06-29T01:27:15.097Z,66.60
2018-06-29T01:29:55.248Z,67.50
2018-06-29T01:35:16.752Z,68.30
2018-06-29T01:37:57.188Z,68.60
2018-06-29T01:40:37.433Z,67.30
2018-06-29T01:43:17.715Z,67.80
2018-06-29T01:45:57.999Z,67.90
2018-06-29T01:48:38.219Z,68.20
2018-06-29T01:51:18.456Z,68.50
2018-06-29T01:53:59.211Z,69.40
2018-06-29T01:56:39.491Z,68.70
2018-06-29T01:59:19.819Z,69.50
2018-06-29T02:04:40.080Z,70.00
2018-06-29T02:07:20.292Z,71.10
2018-06-29T02:12:40.608Z,71.80
2018-06-29T02:15:20.829Z,71.90
2018-06-29T02:18:01.859Z,72.40
2018-06-29T02:20:42.273Z,73.40
2018-06-29T02:23:22.588Z,72.50
2018-06-29T02:26:03.076Z,72.80
2018-06-29T02:28:43.311Z,73.70
2018-06-29T02:31:23.810Z,74.50
2018-06-29T02:34:04.203Z,76.10
2018-06-29T02:39:24.753Z,77.00
2018-06-29T02:42:05.630Z,78.60
2018-06-29T02:44:46.661Z,81.00
2018-06-29T02:47:26.908Z,80.30
2018-06-29T02:50:08.309Z,80.70
2018-06-29T02:52:48.600Z,81.10
2018-06-29T02:55:28.779Z,80.80
2018-06-29T02:58:08.917Z,80.20
2018-06-29T03:00:49.920Z,81.90
2018-06-29T03:03:30.020Z,82.90
2018-06-29T03:06:10.452Z,83.90
2018-06-29T03:08:50.736Z,83.50
2018-06-29T03:11:31.148Z,84.30
2018-06-29T03:14:11.410Z,84.90
2018-06-29T03:16:51.573Z,84.30
2018-06-29T03:22:11.866Z,82.80
2018-06-29T03:24:52.543Z,82.90
2018-06-29T03:30:14.221Z,83.90
2018-06-29T03:32:54.998Z,83.70
2018-06-29T03:35:35.384Z,83.50
2018-06-29T03:38:15.950Z,84.00
2018-06-29T03:43:36.987Z,83.70
2018-06-29T03:46:17.204Z,83.80
2018-06-29T03:48:57.846Z,84.20
2018-06-29T03:51:38.224Z,84.50
2018-06-29T03:54:18.548Z,84.90
2018-06-29T03:56:58.804Z,84.60
2018-06-29T03:59:39.182Z,84.30
2018-06-29T04:02:19.428Z,84.50
2018-06-29T04:05:00.091Z,85.30
2018-06-29T04:07:40.763Z,85.00
2018-06-29T04:10:21.016Z,84.70
2018-06-29T04:13:01.163Z,84.00
2018-06-29T04:15:41.792Z,84.80
2018-06-29T04:18:22.479Z,86.00
2018-06-29T04:21:03.468Z,85.50
2018-06-29T04:23:44.168Z,85.30
2018-06-29T04:26:24.584Z,86.60
2018-06-29T04:29:05.241Z,87.10
2018-06-29T04:31:45.943Z,87.30
2018-06-29T04:34:26.327Z,87.10
2018-06-29T04:37:06.555Z,86.40
2018-06-29T04:39:46.876Z,84.80
2018-06-29T04:42:27.231Z,84.70
2018-06-29T04:45:07.640Z,84.90
2018-06-29T04:47:47.905Z,85.30
2018-06-29T04:50:28.160Z,84.80
2018-06-29T04:53:08.415Z,85.80
2018-06-29T04:55:48.571Z,85.90
2018-06-29T04:58:28.766Z,86.10
2018-06-29T05:01:09.148Z,86.60
2018-06-29T05:06:29.407Z,87.30
2018-06-29T05:11:49.733Z,85.90
2018-06-29T05:14:30.282Z,85.50
2018-06-29T05:17:10.649Z,86.70
2018-06-29T05:19:50.798Z,86.00
2018-06-29T05:22:31.084Z,84.50
2018-06-29T05:25:11.236Z,83.90
2018-06-29T05:27:51.716Z,82.30
2018-06-29T05:30:31.980Z,81.60
2018-06-29T05:33:12.160Z,81.40
2018-06-29T05:35:52.372Z,81.40
2018-06-29T05:38:33.681Z,79.90
2018-06-29T05:41:14.243Z,79.50
2018-06-29T05:43:54.584Z,79.80
2018-06-29T05:46:35.990Z,81.20
2018-06-29T05:49:16.272Z,79.50
2018-06-29T05:51:56.648Z,77.80
2018-06-29T05:54:37.004Z,75.80
2018-06-29T05:57:17.747Z,76.60
2018-06-29T05:59:58.046Z,76.60
2018-06-29T06:02:38.576Z,76.00
2018-06-29T06:05:18.951Z,75.40
2018-06-29T06:07:59.128Z,75.60
2018-06-29T06:10:39.396Z,75.20
2018-06-29T06:13:19.827Z,75.10
2018-06-29T06:16:00.772Z,73.30
2018-06-29T06:18:40.909Z,73.80
2018-06-29T06:24:01.364Z,73.20
2018-06-29T06:26:41.588Z,72.50
2018-06-29T06:29:21.879Z,72.60
2018-06-29T06:32:02.069Z,71.50
2018-06-29T06:34:42.464Z,72.10
2018-06-29T06:37:22.839Z,70.30
2018-06-29T06:40:03.157Z,68.60
2018-06-29T06:45:23.631Z,66.40
2018-06-29T06:50:44.016Z,65.90
2018-06-29T06:53:24.471Z,65.50
2018-06-29T06:56:04.712Z,63.30
2018-06-29T06:58:45.111Z,64.40
2018-06-29T07:01:25.381Z,62.00
2018-06-29T07:04:05.809Z,61.30
2018-06-29T07:06:46.268Z,61.30
2018-06-29T07:09:26.473Z,61.80
2018-06-29T07:12:06.668Z,61.50
2018-06-29T07:17:27.247Z,60.20
2018-06-29T07:20:08.592Z,58.60
2018-06-29T07:22:49.019Z,58.50
2018-06-29T07:25:29.176Z,56.50
2018-06-29T07:28:09.704Z,56.40
2018-06-29T07:30:49.968Z,55.00
2018-06-29T07:33:30.484Z,54.00
2018-06-29T07:36:10.825Z,54.10
2018-06-29T07:38:50.957Z,54.40
2018-06-29T07:41:31.216Z,52.70
2018-06-29T07:44:11.392Z,51.90
2018-06-29T07:46:51.651Z,51.40
2018-06-29T07:49:31.833Z,51.10
2018-06-29T07:52:12.078Z,48.90
2018-06-29T07:54:52.279Z,48.30
2018-06-29T07:57:32.462Z,46.50
2018-06-29T08:00:12.576Z,46.30
2018-06-29T08:02:52.790Z,44.50
2018-06-29T08:05:32.970Z,43.50
2018-06-29T08:08:13.026Z,43.50
2018-06-29T08:10:53.265Z,43.50
2018-06-29T08:16:13.660Z,41.70
2018-06-29T08:18:54.500Z,41.90
2018-06-29T08:21:34.968Z,40.20
2018-06-29T08:24:15.382Z,39.20
2018-06-29T08:26:55.509Z,37.10
2018-06-29T08:29:35.856Z,38.10
2018-06-29T08:32:16.229Z,37.80
2018-06-29T08:34:56.431Z,35.60
2018-06-29T08:37:37.580Z,33.00
2018-06-29T08:40:17.777Z,32.20
2018-06-29T08:42:58.232Z,31.50
2018-06-29T08:45:38.429Z,30.00
2018-06-29T08:48:19.031Z,28.20
2018-06-29T08:50:59.799Z,26.50
2018-06-29T08:53:40.175Z,25.00
2018-06-29T08:56:20.769Z,24.00
2018-06-29T08:59:01.101Z,23.10
2018-06-29T09:01:41.473Z,20.60
2018-06-29T09:04:21.607Z,19.80
2018-06-29T09:07:01.902Z,19.90
2018-06-29T09:09:42.245Z,18.70
2018-06-29T09:12:22.600Z,19.60
2018-06-29T09:15:02.876Z,19.40
2018-06-29T09:17:43.006Z,20.00
2018-06-29T09:20:23.227Z,19.40
2018-06-29T09:23:03.584Z,17.70
2018-06-29T09:25:43.868Z,16.40
2018-06-29T09:28:24.268Z,16.00
2018-06-29T09:31:04.815Z,16.40
2018-06-29T09:33:45.264Z,15.60
2018-06-29T09:36:25.505Z,15.80
2018-06-29T09:39:09.096Z,15.90
2018-06-29T09:41:49.564Z,17.20
2018-06-29T09:44:29.970Z,16.50
2018-06-29T09:47:10.102Z,16.30
2018-06-29T09:49:50.497Z,15.90
2018-06-29T09:52:30.846Z,13.70
2018-06-29T09:55:11.423Z,15.50
2018-06-29T09:57:51.690Z,15.10
2018-06-29T10:00:32.424Z,15.40
2018-06-29T10:05:52.524Z,15.50
2018-06-29T10:08:32.700Z,14.50
2018-06-29T10:11:12.879Z,15.00
2018-06-29T10:13:53.258Z,14.60
2018-06-29T10:16:33.715Z,14.20
2018-06-29T10:19:13.923Z,14.80
2018-06-29T10:21:54.143Z,14.70
2018-06-29T10:24:34.396Z,14.50
2018-06-29T10:27:14.840Z,14.90
2018-06-29T10:29:55.554Z,14.80
2018-06-29T10:35:16.299Z,15.50
2018-06-29T10:37:56.640Z,14.40
2018-06-29T10:40:36.936Z,13.70
2018-06-29T10:43:17.264Z,13.20
2018-06-29T10:45:57.524Z,12.90
2018-06-29T10:48:38.155Z,13.90
2018-06-29T10:51:18.571Z,13.70
2018-06-29T10:53:58.995Z,14.80
2018-06-29T10:56:39.231Z,14.20
2018-06-29T10:59:19.388Z,13.30
2018-06-29T11:01:59.622Z,13.10
2018-06-29T11:04:39.795Z,12.80
2018-06-29T11:07:20.086Z,13.00
2018-06-29T11:10:00.496Z,11.90
2018-06-29T11:12:40.856Z,11.40
2018-06-29T11:15:21.164Z,11.00
2018-06-29T11:18:01.430Z,11.50
2018-06-29T11:20:41.636Z,11.60
2018-06-29T11:23:21.743Z,11.20
2018-06-29T11:26:02.076Z,10.90
2018-06-29T11:28:42.983Z,10.70
2018-06-29T11:31:23.271Z,10.40
2018-06-29T11:34:03.760Z,11.10
2018-06-29T11:36:44.076Z,10.90
2018-06-29T11:42:04.616Z,9.90
2018-06-29T11:44:44.914Z,9.40
2018-06-29T11:47:25.232Z,9.50
2018-06-29T11:50:05.571Z,10.20
2018-06-29T11:52:45.896Z,10.10
2018-06-29T11:55:26.284Z,10.10
2018-06-29T11:58:06.718Z,9.50
2018-06-29T12:00:48.082Z,9.80
2018-06-29T12:03:28.344Z,9.80
2018-06-29T12:06:08.860Z,9.60
2018-06-29T12:08:49.127Z,10.40
2018-06-29T12:11:29.539Z,9.90
2018-06-29T12:14:09.701Z,9.70
2018-06-29T12:16:50.172Z,9.40
2018-06-29T12:19:30.476Z,10.00
2018-06-29T12:22:10.960Z,10.80
2018-06-29T12:27:31.673Z,9.70
2018-06-29T12:30:11.987Z,9.20
2018-06-29T12:32:52.235Z,9.90
2018-06-29T12:38:12.708Z,12.20
2018-06-29T12:40:53.192Z,10.80
2018-06-29T12:43:33.697Z,11.20
2018-06-29T12:46:14.132Z,12.10
2018-06-29T12:48:54.347Z,10.80
2018-06-29T12:51:34.735Z,10.80
2018-06-29T12:54:15.064Z,11.10
2018-06-29T12:56:55.429Z,11.10
2018-06-29T12:59:35.889Z,11.00
2018-06-29T13:02:16.196Z,10.00
2018-06-29T13:04:56.529Z,9.90
2018-06-29T13:07:36.744Z,9.90
2018-06-29T13:10:16.914Z,10.40
2018-06-29T13:12:57.215Z,10.70
2018-06-29T13:15:37.692Z,10.90
2018-06-29T13:18:18.055Z,11.90
2018-06-29T13:20:58.194Z,12.60
2018-06-29T13:23:38.511Z,12.80
2018-06-29T13:26:18.903Z,13.50
2018-06-29T13:31:39.320Z,14.70
2018-06-29T13:34:19.582Z,14.50
2018-06-29T13:36:59.996Z,13.80
2018-06-29T13:42:20.276Z,15.70
2018-06-29T13:45:00.448Z,15.20
2018-06-29T13:47:40.907Z,14.90
2018-06-29T13:50:21.219Z,14.50
2018-06-29T13:53:02.279Z,15.50
2018-06-29T13:58:22.723Z,14.90
2018-06-29T14:01:02.880Z,14.70
2018-06-29T14:03:43.272Z,15.30
2018-06-29T14:09:05.124Z,15.20
2018-06-29T14:11:45.370Z,14.50
2018-06-29T14:14:25.609Z,14.70
2018-06-29T14:17:06.124Z,14.80
2018-06-29T14:19:46.484Z,14.90
2018-06-29T14:22:26.817Z,15.10
2018-06-29T14:27:47.259Z,15.90
2018-06-29T14:30:27.472Z,14.40
2018-06-29T14:33:07.892Z,14.60
2018-06-29T14:35:49.452Z,14.90
2018-06-29T14:38:29.934Z,15.60
2018-06-29T14:41:10.339Z,16.00
2018-06-29T14:43:50.416Z,16.00
2018-06-29T14:46:30.743Z,16.20
2018-06-29T14:49:11.198Z,16.20
2018-06-29T14:51:51.600Z,17.00
2018-06-29T14:54:31.777Z,17.10
2018-06-29T14:57:12.135Z,17.20
2018-06-29T14:59:52.366Z,17.10
2018-06-29T15:05:13.425Z,17.10
2018-06-29T15:07:53.786Z,17.80
2018-06-29T15:10:34.220Z,19.00
2018-06-29T15:13:14.494Z,18.90
2018-06-29T15:15:54.900Z,18.90
2018-06-29T15:18:35.155Z,18.60
2018-06-29T15:21:15.572Z,19.50
2018-06-29T15:23:55.946Z,19.90
2018-06-29T15:26:36.481Z,19.70
2018-06-29T15:29:16.880Z,19.70
2018-06-29T15:34:37.314Z,19.10
2018-06-29T15:37:17.713Z,19.10
2018-06-29T15:39:57.962Z,19.70
2018-06-29T15:42:38.053Z,19.60
2018-06-29T15:45:18.481Z,19.30
2018-06-29T15:47:59.062Z,19.60
2018-06-29T15:50:39.412Z,19.90
2018-06-29T15:53:19.687Z,19.80
2018-06-29T15:56:00.128Z,19.40
2018-06-29T15:58:40.441Z,20.00
2018-06-29T16:01:20.961Z,19.40
2018-06-29T16:04:01.324Z,19.30
2018-06-29T16:06:41.605Z,19.90
2018-06-29T16:09:22.003Z,19.80
2018-06-29T16:12:02.282Z,20.00
2018-06-29T16:14:42.628Z,19.50
2018-06-29T16:17:22.751Z,19.70
2018-06-29T16:20:03.040Z,19.70
2018-06-29T16:22:43.314Z,20.10
2018-06-29T16:25:23.377Z,19.70
2018-06-29T16:28:03.544Z,20.80
2018-06-29T16:30:43.888Z,20.80
2018-06-29T16:33:24.219Z,21.00
2018-06-29T16:36:04.384Z,20.80
2018-06-29T16:38:44.819Z,21.40
2018-06-29T16:44:06.916Z,21.70
2018-06-29T16:46:47.251Z,21.90
2018-06-29T16:49:27.491Z,21.30
2018-06-29T16:52:07.980Z,21.90
2018-06-29T16:54:48.050Z,22.00
2018-06-29T16:57:28.397Z,22.00
2018-06-29T17:00:08.896Z,22.20
2018-06-29T17:02:49.246Z,22.70
2018-06-29T17:05:29.458Z,22.10
2018-06-29T17:08:09.552Z,22.70
2018-06-29T17:10:49.990Z,22.30
2018-06-29T17:13:30.264Z,22.20
2018-06-29T17:16:10.497Z,23.40
2018-06-29T17:18:50.871Z,22.70
2018-06-29T17:24:11.120Z,24.10
2018-06-29T17:26:51.379Z,24.50
2018-06-29T17:29:31.556Z,24.70
2018-06-29T17:32:14.310Z,25.10
2018-06-29T17:34:54.717Z,25.30
2018-06-29T17:37:34.975Z,25.60
2018-06-29T17:40:15.327Z,25.50
2018-06-29T17:42:55.672Z,26.30
2018-06-29T17:45:35.914Z,26.40
2018-06-29T17:48:16.196Z,26.70
2018-06-29T17:53:36.661Z,27.10
2018-06-29T17:56:17.124Z,27.00
2018-06-29T17:58:57.556Z,27.00
2018-06-29T18:04:17.940Z,27.20
2018-06-29T18:06:58.419Z,26.90
2018-06-29T18:09:38.715Z,26.90
2018-06-29T18:12:19.004Z,27.50
2018-06-29T18:14:59.419Z,27.60
2018-06-29T18:17:39.750Z,28.20
2018-06-29T18:20:20.189Z,28.20
2018-06-29T18:25:40.881Z,28.70
2018-06-29T18:28:21.164Z,28.60
2018-06-29T18:33:41.543Z,28.50
2018-06-29T18:36:21.627Z,29.20
2018-06-29T18:41:42.177Z,29.30
2018-06-29T18:44:22.360Z,29.60
2018-06-29T18:47:02.545Z,30.00
2018-06-29T18:49:42.883Z,30.20
2018-06-29T18:52:23.286Z,29.60
2018-06-29T18:55:03.572Z,29.90
2018-06-29T18:57:43.810Z,30.30
2018-06-29T19:00:23.982Z,29.60
2018-06-29T19:03:04.452Z,30.00
2018-06-29T19:08:24.836Z,30.70
2018-06-29T19:11:05.156Z,30.60
2018-06-29T19:13:45.612Z,30.90
2018-06-29T19:16:25.909Z,30.90
2018-06-29T19:19:06.265Z,30.70
2018-06-29T19:21:46.516Z,31.40
2018-06-29T19:24:26.699Z,31.40
2018-06-29T19:27:07.172Z,31.30
2018-06-29T19:29:47.451Z,31.00
2018-06-29T19:32:27.868Z,32.00
2018-06-29T19:37:48.415Z,31.70
2018-06-29T19:43:08.744Z,32.10
2018-06-29T19:45:48.934Z,31.80
2018-06-29T19:48:29.240Z,32.50
2018-06-29T19:51:09.740Z,32.50
2018-06-29T19:53:49.821Z,33.10
2018-06-29T19:56:30.142Z,33.40
2018-06-29T19:59:10.584Z,33.50
2018-06-29T20:01:50.809Z,33.80
2018-06-29T20:04:30.983Z,34.00
2018-06-29T20:07:11.251Z,34.30
2018-06-29T20:09:51.440Z,34.40
2018-06-29T20:12:31.631Z,34.20
2018-06-29T20:15:13.024Z,34.70
2018-06-29T20:17:53.182Z,34.90
2018-06-29T20:20:33.505Z,35.70
2018-06-29T20:23:13.768Z,35.70
2018-06-29T20:25:54.194Z,35.90
2018-06-29T20:28:34.448Z,35.80
2018-06-29T20:31:14.715Z,35.80
2018-06-29T20:33:55.072Z,36.40
2018-06-29T20:39:15.453Z,35.90
2018-06-29T20:41:55.918Z,36.00
2018-06-29T20:47:16.183Z,37.70
2018-06-29T20:49:56.451Z,37.90
2018-06-29T20:52:36.763Z,37.60
2018-06-29T20:55:16.963Z,37.60
2018-06-29T20:57:57.238Z,38.40
2018-06-29T21:00:37.386Z,37.70
2018-06-29T21:03:17.832Z,38.60
2018-06-29T21:05:58.133Z,38.70
2018-06-29T21:08:38.499Z,38.90
2018-06-29T21:11:18.608Z,39.00
2018-06-29T21:13:59.037Z,38.50
2018-06-29T21:16:39.425Z,38.90
2018-06-29T21:19:19.896Z,38.50
2018-06-29T21:22:00.117Z,40.00
2018-06-29T21:24:40.300Z,39.40
2018-06-29T21:27:20.643Z,39.50
2018-06-29T21:32:41.112Z,42.60
2018-06-29T21:35:21.359Z,42.90
2018-06-29T21:40:41.816Z,44.40
2018-06-29T21:43:22.121Z,45.20
2018-06-29T21:48:42.398Z,47.50
2018-06-29T21:51:22.708Z,49.00
2018-06-29T21:54:02.796Z,49.20
2018-06-29T21:56:43.108Z,49.90
2018-06-29T22:04:43.859Z,51.30
2018-06-29T22:10:04.920Z,52.50
2018-06-29T22:15:25.359Z,52.30
2018-06-29T22:18:05.728Z,52.70
2018-06-29T22:20:45.928Z,53.60
2018-06-29T22:23:26.309Z,52.50
2018-06-29T22:26:06.716Z,53.90
2018-06-29T22:28:46.988Z,53.20
2018-06-29T22:31:27.174Z,54.10
2018-06-29T22:34:07.628Z,53.40
2018-06-29T22:36:48.054Z,54.20
2018-06-29T22:39:28.336Z,54.90
2018-06-29T22:42:08.788Z,55.00
2018-06-29T22:44:49.078Z,55.10
2018-06-29T22:47:29.257Z,55.80
2018-06-29T22:50:09.631Z,57.40
2018-06-29T22:58:10.083Z,58.50
2018-06-29T23:00:50.198Z,59.30
2018-06-29T23:03:35.996Z,59.50
2018-06-29T23:06:16.214Z,60.00
2018-06-29T23:08:56.389Z,60.00
2018-06-29T23:11:36.816Z,60.70
2018-06-29T23:14:17.255Z,61.70
2018-06-29T23:16:57.592Z,61.30
2018-06-29T23:19:38.234Z,62.50
2018-06-29T23:22:18.492Z,62.50
2018-06-29T23:24:58.775Z,63.80
2018-06-29T23:27:39.073Z,64.50
2018-06-29T23:30:19.507Z,65.30
2018-06-29T23:32:59.787Z,65.70
2018-06-29T23:35:39.960Z,65.90
2018-06-29T23:38:20.344Z,65.50
2018-06-29T23:41:00.680Z,66.20
2018-06-29T23:43:40.958Z,66.90
2018-06-29T23:46:21.392Z,66.90
2018-06-29T23:49:01.706Z,67.80
2018-06-29T23:51:41.842Z,68.50
2018-06-29T23:54:22.042Z,69.30
2018-06-29T23:57:02.226Z,69.00
2018-06-29T23:59:42.383Z,69.90
